Time;durP1;ratioP1;P1;durP2;ratioP2;P2;SDS_P1;SDS_P2;PMS_P1;PMS_P2;Temp;Humidity;BMP_temperature;BMP_pressure;BME280_temperature;BME280_humidity;BME280_pressure;Samples;Min_cycle;Max_cycle;Signal;HPM_P1;HPM_P2
2022/09/25 00:00:18;;;;;;;2.30;1.75;;;;;;;12.32;93.38;99995.97;6297590;28;20059;-73
2022/09/25 00:03:20;;;;;;;3.33;2.22;;;;;;;12.26;95.04;100001.63;6298861;28;20041;-73
2022/09/25 00:06:22;;;;;;;;;;;;;;;12.21;94.05;99991.47;6297859;28;20053;-74
2022/09/25 00:09:22;;;;;;;4.03;1.65;;;;;;;12.17;94.18;99999.63;6297566;28;20403;-74
2022/09/25 00:12:23;;;;;;;3.38;2.20;;;;;;;12.13;93.60;99991.16;6298631;28;20040;-74
2022/09/25 00:15:25;;;;;;;3.03;2.08;;;;;;;12.16;94.56;99992.72;6296939;28;20455;-74
2022/09/25 00:21:45;;;;;;;3.15;1.88;;;;;;;12.07;94.62;99981.97;6298952;28;20068;-73
2022/09/25 00:24:47;;;;;;;4.50;2.17;;;;;;;12.08;95.03;99986.22;6298942;28;20053;-73
2022/09/25 00:27:53;;;;;;;3.80;2.23;;;;;;;12.09;95.79;99976.63;6299265;28;20408;-73
2022/09/25 00:30:55;;;;;;;2.75;1.77;;;;;;;12.04;96.35;99976.09;6299081;28;20044;-73
2022/09/25 00:33:57;;;;;;;;;;;;;;;12.01;96.69;99978.94;6298258;28;20496;-73
2022/09/25 00:36:58;;;;;;;2.90;1.90;;;;;;;12.01;95.84;99977.16;6297560;28;20391;-73
2022/09/25 00:39:58;;;;;;;2.53;1.70;;;;;;;12.01;98.66;99973.69;6298735;28;20052;-73
2022/09/25 00:42:59;;;;;;;3.08;1.80;;;;;;;11.98;95.85;99966.88;6297587;28;20063;-73
2022/09/25 00:46:04;;;;;;;2.88;1.90;;;;;;;11.94;95.41;99972.44;6297540;28;20472;-73
2022/09/25 00:49:08;;;;;;;2.67;2.05;;;;;;;12.03;95.77;99970.03;6297997;28;20043;-73
2022/09/25 00:52:14;;;;;;;2.83;1.67;;;;;;;12.03;94.69;99969.19;6297840;28;20565;-73
2022/09/25 00:55:15;;;;;;;2.75;1.92;;;;;;;12.03;96.64;99964.81;6297196;28;20044;-74
2022/09/25 00:58:20;;;;;;;2.40;1.70;;;;;;;12.04;96.44;99968.25;6296896;28;20057;-74
2022/09/25 01:01:21;;;;;;;3.20;1.77;;;;;;;12.03;94.97;99962.19;6296975;28;20130;-74
2022/09/25 01:04:22;;;;;;;3.03;1.90;;;;;;;12.03;96.12;99958.75;6296875;28;20037;-73
2022/09/25 01:07:23;;;;;;;2.15;1.48;;;;;;;12.03;94.78;99953.50;6296862;28;20044;-73
2022/09/25 01:10:24;;;;;;;3.10;1.55;;;;;;;11.98;95.85;99956.41;6297000;28;20070;-73
2022/09/25 01:13:25;;;;;;;6.07;2.00;;;;;;;11.99;96.28;99957.28;6297102;28;20041;-73
2022/09/25 01:16:46;;;;;;;3.40;2.13;;;;;;;12.00;96.88;99959.75;6296796;28;20052;-73
2022/09/25 01:19:48;;;;;;;2.60;1.63;;;;;;;11.98;97.22;99952.97;6298117;28;20361;-74
2022/09/25 01:22:54;;;;;;;1.65;1.27;;;;;;;12.06;96.26;99953.28;6297956;28;20041;-73
2022/09/25 01:26:13;;;;;;;3.55;1.70;;;;;;;12.03;96.33;99954.34;6296428;28;20048;-74
2022/09/25 01:29:20;;;;;;;2.50;1.75;;;;;;;12.02;96.84;99951.81;6294586;28;20044;-73
2022/09/25 01:32:40;;;;;;;2.03;1.60;;;;;;;12.00;97.92;99944.06;6296690;28;20075;-74
2022/09/25 01:35:55;;;;;;;4.63;1.52;;;;;;;12.01;99.15;99940.53;6297671;28;20048;-73
2022/09/25 01:39:14;;;;;;;2.22;1.50;;;;;;;12.02;99.16;99944.81;6297402;28;20599;-73
2022/09/25 01:42:25;;;;;;;3.33;1.75;;;;;;;11.99;99.76;99941.59;6297598;28;20041;-74
2022/09/25 01:45:54;;;;;;;6.18;1.73;;;;;;;11.97;99.70;99939.06;6296496;28;20049;-73
2022/09/25 01:49:08;;;;;;;2.90;1.83;;;;;;;12.03;100.00;99943.06;6297396;28;20127;-73
2022/09/25 01:52:21;;;;;;;3.08;1.58;;;;;;;12.13;98.76;99946.72;6296413;28;20049;-73
2022/09/25 01:55:30;;;;;;;2.00;1.67;;;;;;;12.19;99.29;99937.56;6296850;28;20036;-73
2022/09/25 01:58:35;;;;;;;3.50;2.00;;;;;;;11.99;100.00;99936.38;6296717;28;20053;-73
2022/09/25 02:01:46;;;;;;;5.63;2.30;;;;;;;12.04;100.00;99935.06;6296934;28;20456;-73
2022/09/25 02:04:54;;;;;;;2.75;1.65;;;;;;;12.15;99.40;99934.34;6296983;28;20036;-73
2022/09/25 02:08:00;;;;;;;2.08;1.50;;;;;;;12.17;100.00;99929.00;6295762;28;20052;-73
2022/09/25 02:11:04;;;;;;;2.13;1.60;;;;;;;12.16;98.43;99929.97;6296212;28;20098;-73
2022/09/25 02:14:16;;;;;;;2.20;1.80;;;;;;;12.14;98.66;99924.81;6295923;28;20045;-73
2022/09/25 02:20:47;;;;;;;3.08;1.80;;;;;;;12.16;97.97;99932.56;6297424;28;20044;-73
2022/09/25 02:24:11;;;;;;;2.35;1.75;;;;;;;12.04;98.58;99929.03;6296897;28;20036;-73
2022/09/25 02:27:13;;;;;;;2.72;1.75;;;;;;;12.11;97.10;99930.28;6312706;28;20510;-73
2022/09/25 02:30:14;;;;;;;4.97;1.58;;;;;;;12.13;96.61;99936.25;6295887;28;20079;-73
2022/09/25 02:33:15;;;;;;;1.90;1.48;;;;;;;12.10;95.99;99928.59;6295570;28;20051;-73
2022/09/25 02:36:18;;;;;;;2.00;1.65;;;;;;;12.17;95.18;99931.63;6296049;28;20052;-73
2022/09/25 02:39:22;;;;;;;2.47;1.52;;;;;;;12.16;96.07;99938.63;6295813;28;20499;-74
2022/09/25 02:42:35;;;;;;;2.95;1.67;;;;;;;12.16;94.60;99938.63;6295805;28;20079;-74
2022/09/25 02:45:56;;;;;;;3.50;1.88;;;;;;;12.19;94.60;99932.34;6298903;28;20056;-74
2022/09/25 02:49:18;;;;;;;2.20;1.67;;;;;;;12.16;94.53;99924.72;6300341;28;20072;-73
2022/09/25 02:52:54;;;;;;;2.43;1.80;;;;;;;12.07;92.87;99928.81;6301425;28;20068;-73
2022/09/25 02:55:57;;;;;;;3.05;1.85;;;;;;;12.10;94.41;99920.75;6300072;28;20183;-74
2022/09/25 02:59:08;;;;;;;2.63;1.88;;;;;;;12.10;93.23;99924.19;6301462;28;20064;-73
2022/09/25 03:02:10;;;;;;;2.67;1.60;;;;;;;12.11;95.62;99919.81;6301219;28;20040;-74
2022/09/25 03:05:13;;;;;;;7.00;2.53;;;;;;;12.20;95.63;99919.16;6301035;28;20559;-73
2022/09/25 03:11:41;;;;;;;2.60;2.00;;;;;;;12.16;95.22;99907.25;6301020;28;20048;-73
2022/09/25 03:14:42;;;;;;;2.05;1.60;;;;;;;12.10;93.28;99910.28;6301181;28;20450;-73
2022/09/25 03:17:43;;;;;;;2.25;1.58;;;;;;;12.06;94.76;99904.44;6299342;28;20040;-73
2022/09/25 03:20:44;;;;;;;3.15;1.80;;;;;;;12.12;94.41;99897.94;6300365;28;20136;-74
2022/09/25 03:23:45;;;;;;;2.17;1.65;;;;;;;12.20;94.65;99908.69;6300704;28;20435;-73
2022/09/25 03:26:45;;;;;;;2.03;1.60;;;;;;;12.14;93.28;99901.28;6300661;28;20075;-73
2022/09/25 03:29:48;;;;;;;3.88;1.77;;;;;;;12.13;93.47;99909.22;6300493;28;20040;-74
2022/09/25 03:32:49;;;;;;;1.98;1.67;;;;;;;12.13;93.15;99904.84;6299583;28;20090;-73
2022/09/25 03:36:00;;;;;;;2.85;1.95;;;;;;;12.09;92.93;99899.00;6300436;28;20492;-73
2022/09/25 03:39:01;;;;;;;2.63;1.65;;;;;;;12.08;96.20;99892.06;6299166;28;20044;-74
2022/09/25 03:42:02;;;;;;;2.00;1.55;;;;;;;12.11;93.10;99888.44;6300410;28;20060;-73
2022/09/25 03:45:05;;;;;;;3.22;2.00;;;;;;;12.10;94.94;99898.03;6299150;28;20040;-73
2022/09/25 03:48:05;;;;;;;2.67;1.70;;;;;;;12.17;94.04;99889.75;6300155;28;20072;-74
2022/09/25 03:51:07;;;;;;;2.58;1.58;;;;;;;12.19;94.75;99888.75;6298846;28;20056;-73
2022/09/25 03:54:07;;;;;;;3.43;1.90;;;;;;;12.26;93.58;99900.44;6300175;28;20048;-73
2022/09/25 03:57:11;;;;;;;3.15;1.70;;;;;;;12.20;94.49;99892.19;6299344;28;20128;-73
2022/09/25 04:00:13;;;;;;;2.47;1.83;;;;;;;12.22;95.55;99888.50;6299870;28;20045;-73
2022/09/25 04:03:15;;;;;;;3.78;2.10;;;;;;;12.24;94.70;99891.84;6298643;28;20052;-73
2022/09/25 04:06:18;;;;;;;2.53;1.80;;;;;;;12.22;94.92;99882.44;6298424;28;20044;-73
2022/09/25 04:09:19;;;;;;;3.42;1.98;;;;;;;12.25;95.00;99885.69;6299050;28;20044;-73
2022/09/25 04:12:20;;;;;;;3.13;2.00;;;;;;;12.20;94.27;99886.94;6298826;28;20079;-74
2022/09/25 04:15:24;;;;;;;3.05;1.88;;;;;;;12.22;94.16;99882.44;6298467;28;20049;-73
2022/09/25 04:18:27;;;;;;;3.33;1.80;;;;;;;12.27;94.92;99886.41;6298029;28;20465;-74
2022/09/25 04:21:30;;;;;;;2.67;1.90;;;;;;;12.37;92.67;99888.38;6299293;28;20094;-74
2022/09/25 04:24:49;;;;;;;1.88;1.45;;;;;;;12.38;93.30;99877.81;6297715;28;20041;-73
2022/09/25 04:27:54;;;;;;;2.15;1.50;;;;;;;12.29;93.76;99884.53;6298492;28;20044;-73
2022/09/25 04:30:55;;;;;;;2.88;1.90;;;;;;;12.29;95.35;99889.75;6298879;28;20076;-73
2022/09/25 04:34:01;;;;;;;1.85;1.58;;;;;;;12.24;92.75;99884.00;6298732;28;20044;-73
2022/09/25 04:37:04;;;;;;;3.13;1.92;;;;;;;12.25;93.14;99879.59;6297681;28;20044;-73
2022/09/25 04:40:05;;;;;;;2.03;1.42;;;;;;;12.34;90.28;99880.75;6298956;28;20051;-74
2022/09/25 04:43:06;;;;;;;2.43;1.63;;;;;;;12.44;90.57;99877.38;6297518;28;20045;-74
2022/09/25 04:46:11;;;;;;;3.50;1.80;;;;;;;12.45;89.88;99884.25;6298538;28;20078;-73
2022/09/25 04:49:12;;;;;;;6.07;2.10;;;;;;;12.53;89.38;99880.25;6298538;28;20044;-74
2022/09/25 04:52:15;;;;;;;2.03;1.65;;;;;;;12.52;88.08;99881.19;6297444;28;20044;-73
2022/09/25 04:55:21;;;;;;;3.72;2.45;;;;;;;12.53;87.55;99888.13;6297789;28;20127;-73
2022/09/25 04:58:22;;;;;;;4.38;2.92;;;;;;;12.58;88.64;99886.84;6298146;28;20048;-73
2022/09/25 05:01:23;;;;;;;5.80;4.03;;;;;;;12.65;88.38;99882.00;6313966;28;20147;-73
2022/09/25 05:04:23;;;;;;;4.78;3.65;;;;;;;12.73;86.73;99878.84;6298455;28;20048;-73
2022/09/25 05:07:24;;;;;;;2.55;2.25;;;;;;;12.75;89.10;99880.38;6296461;28;20064;-73
2022/09/25 05:10:28;;;;;;;2.63;1.95;;;;;;;12.74;87.00;99880.50;6297088;28;20441;-73
2022/09/25 05:13:29;;;;;;;2.90;1.83;;;;;;;12.84;87.75;99873.63;6298306;28;20045;-74
2022/09/25 05:16:32;;;;;;;4.13;1.92;;;;;;;12.92;86.72;99866.06;6296772;28;20039;-73
2022/09/25 05:19:35;;;;;;;3.53;1.80;;;;;;;12.96;86.68;99879.75;6296793;28;20048;-73
2022/09/25 05:22:36;;;;;;;5.32;2.72;;;;;;;12.95;85.94;99880.69;6330389;28;20090;-73
2022/09/25 05:25:37;;;;;;;17.52;7.63;;;;;;;12.94;84.91;99876.41;6295915;28;20110;-73
2022/09/25 05:28:38;;;;;;;40.80;17.80;;;;;;;13.00;84.57;99874.19;6297568;28;20492;-74
2022/09/25 05:31:41;;;;;;;35.28;14.82;;;;;;;13.07;84.23;99870.16;6296240;28;20044;-74
2022/09/25 05:34:42;;;;;;;24.60;10.20;;;;;;;13.18;83.89;99877.22;6297818;28;20532;-74
2022/09/25 05:37:42;;;;;;;12.40;5.63;;;;;;;13.19;84.13;99867.56;6296334;28;20066;-74
2022/09/25 05:40:43;;;;;;;11.98;5.72;;;;;;;13.24;82.06;99871.53;6296388;28;20044;-73
2022/09/25 05:43:49;;;;;;;6.97;4.00;;;;;;;13.20;82.30;99867.47;6297527;28;20063;-75
2022/09/25 05:46:49;;;;;;;4.75;2.72;;;;;;;13.24;81.76;99865.44;6296366;28;20050;-74
2022/09/25 05:49:50;;;;;;;2.75;1.90;;;;;;;13.39;81.62;99868.72;6296217;28;20044;-74
2022/09/25 05:52:55;;;;;;;3.22;2.17;;;;;;;13.60;80.91;99880.19;6297300;28;20119;-74
2022/09/25 05:55:58;;;;;;;2.30;1.70;;;;;;;13.72;81.39;99883.66;6295888;28;20067;-74
2022/09/25 05:59:00;;;;;;;2.05;1.50;;;;;;;13.80;80.23;99880.47;6297548;28;20056;-74
2022/09/25 06:02:00;;;;;;;3.55;1.80;;;;;;;13.87;79.68;99879.03;6297325;28;20106;-73
2022/09/25 06:05:03;;;;;;;1.90;1.48;;;;;;;13.94;79.44;99884.63;6297302;28;20048;-74
2022/09/25 06:08:05;;;;;;;1.73;1.58;;;;;;;14.05;76.85;99889.88;6296006;28;20150;-73
2022/09/25 06:11:06;;;;;;;2.20;1.73;;;;;;;14.10;75.85;99899.06;6297243;28;20401;-74
2022/09/25 06:14:07;;;;;;;1.47;1.10;;;;;;;14.20;75.21;99888.66;6297129;28;20055;-74
2022/09/25 06:17:08;;;;;;;1.90;1.60;;;;;;;14.29;75.59;99906.31;6295259;28;20297;-74
2022/09/25 06:20:10;;;;;;;1.77;1.35;;;;;;;14.47;75.40;99890.88;6298952;28;20040;-74
2022/09/25 06:23:10;;;;;;;2.90;1.88;;;;;;;14.75;74.33;99904.47;6300252;28;20040;-73
2022/09/25 06:26:12;;;;;;;3.47;2.22;;;;;;;15.00;73.76;99897.22;6300180;28;20048;-74
2022/09/25 06:29:13;;;;;;;2.47;1.85;;;;;;;15.09;73.31;99892.06;6301995;28;20443;-74
2022/09/25 06:32:15;;;;;;;5.38;2.25;;;;;;;15.15;72.34;99898.56;6302103;28;20044;-74
2022/09/25 06:35:16;;;;;;;2.92;1.80;;;;;;;15.17;73.89;99907.16;6300874;28;20044;-74
2022/09/25 06:38:19;;;;;;;2.00;1.70;;;;;;;15.10;72.84;99908.66;6300212;28;20419;-74
2022/09/25 06:41:21;;;;;;;1.52;1.42;;;;;;;15.20;75.26;99913.97;6301868;28;20123;-74
2022/09/25 06:44:22;;;;;;;3.90;2.10;;;;;;;15.12;74.52;99909.34;6299935;28;20485;-74
2022/09/25 06:47:22;;;;;;;2.88;1.70;;;;;;;15.20;74.01;99917.44;6297884;28;20276;-74
2022/09/25 06:50:30;;;;;;;3.92;1.77;;;;;;;15.18;71.37;99916.72;6299493;28;20044;-73
2022/09/25 06:53:31;;;;;;;1.60;1.38;;;;;;;15.35;73.40;99914.50;6299424;28;20048;-74
2022/09/25 06:56:32;;;;;;;2.35;1.83;;;;;;;15.49;73.16;99909.75;6300291;28;20416;-74
2022/09/25 06:59:32;;;;;;;2.53;1.48;;;;;;;15.63;70.82;99907.78;6300365;28;20037;-75
2022/09/25 07:05:52;;;;;;;24.55;7.10;;;;;;;15.95;67.79;99912.94;6300330;28;20048;-74
2022/09/25 07:08:57;;;;;;;;;;;;;;;15.90;67.84;99915.97;6299483;28;20123;-74
2022/09/25 07:11:58;;;;;;;8.52;4.55;;;;;;;15.85;68.82;99918.16;6298859;28;19920;-74
2022/09/25 07:14:58;;;;;;;5.32;2.80;;;;;;;15.86;67.22;99919.00;6297575;28;20066;-73
2022/09/25 07:17:59;;;;;;;21.48;8.70;;;;;;;15.79;66.33;99917.84;6299913;28;20098;-74
2022/09/25 07:21:05;;;;;;;4.90;2.67;;;;;;;15.84;68.67;99910.41;6298816;28;20042;-74
2022/09/25 07:24:05;;;;;;;7.35;4.07;;;;;;;15.77;68.19;99912.69;6299813;28;20119;-74
2022/09/25 07:27:06;;;;;;;3.25;2.00;;;;;;;15.71;67.44;99907.97;6289637;28;20041;-74
2022/09/25 07:30:08;;;;;;;13.70;5.88;;;;;;;15.69;69.60;99908.06;6274175;28;20052;-75
2022/09/25 07:33:13;;;;;;;2.72;2.10;;;;;;;15.62;69.86;99913.97;6273459;28;20052;-74
2022/09/25 07:36:18;;;;;;;2.45;1.58;;;;;;;15.75;69.01;99911.16;6273502;28;20045;-74
2022/09/25 07:39:21;;;;;;;2.30;1.60;;;;;;;15.79;69.04;99912.56;6273381;28;20049;-74
2022/09/25 07:42:22;;;;;;;1.50;1.33;;;;;;;15.61;68.57;99915.78;6273474;28;20048;-74
2022/09/25 07:45:25;;;;;;;2.10;1.67;;;;;;;15.52;68.21;99906.88;6274618;28;20037;-74
2022/09/25 07:48:29;;;;;;;3.88;1.98;;;;;;;15.44;67.98;99905.84;6273371;28;20124;-73
2022/09/25 07:51:30;;;;;;;2.17;1.42;;;;;;;15.48;69.62;99904.63;6274526;28;20045;-73
2022/09/25 07:54:34;;;;;;;3.60;2.88;;;;;;;15.45;69.15;99910.97;6273273;28;20041;-74
2022/09/25 07:57:35;;;;;;;3.25;1.80;;;;;;;15.54;70.15;99921.69;6272875;28;20048;-74
2022/09/25 08:00:36;;;;;;;1.92;1.65;;;;;;;15.44;69.47;99913.72;6273103;28;20048;-74
2022/09/25 08:03:37;;;;;;;2.97;1.93;;;;;;;15.43;71.16;99904.19;6272994;28;20071;-75
2022/09/25 08:06:38;;;;;;;3.88;1.73;;;;;;;15.64;70.52;99905.00;6272815;28;20540;-75
2022/09/25 08:09:41;;;;;;;3.40;2.40;;;;;;;15.73;70.87;99911.31;6273880;28;20413;-75
2022/09/25 08:12:42;;;;;;;2.03;1.77;;;;;;;15.91;68.93;99914.16;6272888;28;20049;-74
2022/09/25 08:15:42;;;;;;;7.60;4.75;;;;;;;15.95;68.76;99912.09;6273928;28;20512;-75
2022/09/25 08:18:45;;;;;;;2.58;1.75;;;;;;;16.12;69.08;99903.59;6265787;28;20038;-75
2022/09/25 08:21:46;;;;;;;4.78;2.80;;;;;;;16.17;66.96;99898.75;6281115;28;20071;-74
2022/09/25 08:24:48;;;;;;;4.03;2.70;;;;;;;16.28;66.89;99897.81;6247536;28;20136;-74
2022/09/25 08:27:48;;;;;;;;;;;;;;;16.21;65.91;99891.44;6249367;28;20482;-73
2022/09/25 08:30:49;;;;;;;4.03;2.33;;;;;;;16.47;66.92;99897.88;6280631;28;19966;-74
2022/09/25 08:34:01;;;;;;;3.23;2.40;;;;;;;16.62;65.67;99900.13;6232454;28;20099;-74
2022/09/25 08:37:14;;;;;;;2.95;2.08;;;;;;;16.83;66.37;99898.25;6263747;28;20050;-74
2022/09/25 08:40:25;;;;;;;2.15;1.83;;;;;;;16.97;64.70;99891.72;6248541;28;20051;-74
2022/09/25 08:43:27;;;;;;;3.10;2.10;;;;;;;17.19;65.39;99893.22;6248498;28;20041;-74
2022/09/25 08:50:21;;;;;;;2.22;1.83;;;;;;;17.21;63.50;99886.00;6248243;28;20413;-74
2022/09/25 08:53:25;;;;;;;3.88;2.20;;;;;;;17.31;62.22;99878.09;6247219;28;20049;-73
2022/09/25 08:56:31;;;;;;;2.40;1.98;;;;;;;17.45;63.66;99880.28;6248218;28;20049;-74
2022/09/25 08:59:32;;;;;;;2.90;2.20;;;;;;;17.57;61.88;99878.34;6248126;28;20073;-74
2022/09/25 09:02:44;;;;;;;5.30;2.97;;;;;;;17.68;61.86;99872.03;6266560;28;20071;-74
2022/09/25 09:05:46;;;;;;;3.13;2.20;;;;;;;17.72;62.49;99870.78;6271748;28;20445;-74
2022/09/25 09:09:03;;;;;;;2.65;1.83;;;;;;;18.03;59.76;99871.38;6272510;28;20588;-74
2022/09/25 09:12:18;;;;;;;2.63;2.00;;;;;;;17.73;58.89;99875.94;6272499;28;20045;-74
2022/09/25 09:15:51;;;;;;;2.63;2.10;;;;;;;17.72;60.06;99876.06;6271350;28;20052;-74
2022/09/25 09:18:54;;;;;;;3.08;2.00;;;;;;;17.57;60.92;99875.69;6272232;28;20066;-74
2022/09/25 09:22:12;;;;;;;2.38;1.83;;;;;;;17.39;61.15;99867.69;6272399;28;20072;-73
2022/09/25 09:25:42;;;;;;;3.70;2.13;;;;;;;17.25;62.56;99876.84;6270916;28;20041;-74
2022/09/25 09:29:09;;;;;;;5.18;2.10;;;;;;;17.18;65.81;99881.03;6270978;28;20394;-75
2022/09/25 09:32:46;;;;;;;2.30;1.88;;;;;;;17.19;68.45;99890.59;6270738;28;20493;-75
2022/09/25 09:36:30;;;;;;;10.73;2.25;;;;;;;17.12;68.16;99881.59;6270875;28;20049;-74
2022/09/25 09:39:44;;;;;;;2.75;2.20;;;;;;;17.16;65.32;99876.88;6246496;28;20056;-74
2022/09/25 09:42:57;;;;;;;3.72;2.30;;;;;;;17.18;66.48;99883.66;6272023;28;20124;-74
2022/09/25 09:46:21;;;;;;;7.03;2.70;;;;;;;17.24;64.63;99879.66;6271986;28;20049;-74
2022/09/25 09:49:49;;;;;;;4.72;2.47;;;;;;;17.18;64.02;99878.41;6271654;28;20110;-75
2022/09/25 09:53:00;;;;;;;3.58;2.42;;;;;;;17.02;63.59;99884.22;6271847;28;20094;-74
2022/09/25 09:56:13;;;;;;;3.05;2.35;;;;;;;17.22;66.08;99884.22;6271370;28;20053;-74
2022/09/25 09:59:28;;;;;;;2.33;1.95;;;;;;;17.25;64.93;99878.66;6271769;28;20472;-74
2022/09/25 10:03:04;;;;;;;2.83;2.00;;;;;;;17.21;64.62;99880.75;6270332;28;20049;-73
2022/09/25 10:06:14;;;;;;;2.95;2.08;;;;;;;17.39;64.48;99878.22;6264198;28;20141;-73
2022/09/25 10:09:16;;;;;;;1.77;1.67;;;;;;;17.40;64.52;99879.91;6271607;28;20037;-74
2022/09/25 10:12:24;;;;;;;;;;;;;;;17.37;64.89;99879.34;6254074;28;20060;-74
2022/09/25 10:15:33;;;;;;;20.75;5.72;;;;;;;17.42;66.77;99872.69;6271437;28;19927;-73
2022/09/25 10:18:45;;;;;;;6.32;3.53;;;;;;;17.48;66.35;99880.03;6253619;28;20416;-74
2022/09/25 10:22:13;;;;;;;3.30;2.13;;;;;;;17.55;66.08;99879.47;6271545;28;20048;-74
2022/09/25 10:25:37;;;;;;;3.25;2.08;;;;;;;17.60;66.43;99879.84;6264015;28;20286;-74
2022/09/25 10:28:37;;;;;;;5.13;2.25;;;;;;;17.62;63.82;99870.81;6270194;28;20056;-74
2022/09/25 10:31:42;;;;;;;12.35;7.78;;;;;;;17.78;64.36;99874.66;6271215;28;20041;-74
2022/09/25 10:34:51;;;;;;;7.50;2.22;;;;;;;17.78;63.87;99867.56;6253579;28;20059;-74
2022/09/25 10:37:59;;;;;;;4.70;2.38;;;;;;;17.91;66.54;99876.03;6271291;28;20079;-74
2022/09/25 10:41:22;;;;;;;4.28;2.17;;;;;;;17.84;65.60;99868.84;6271205;28;20489;-74
2022/09/25 10:44:43;;;;;;;4.80;2.03;;;;;;;17.83;66.16;99868.00;6271203;28;20060;-75
2022/09/25 10:51:11;;;;;;;2.97;2.08;;;;;;;17.98;68.61;99867.53;6269750;28;20080;-74
2022/09/25 10:54:14;;;;;;;3.60;1.80;;;;;;;17.91;67.49;99868.13;6253133;28;20079;-74
2022/09/25 10:57:33;;;;;;;10.38;3.33;;;;;;;18.00;69.37;99869.03;6269743;28;20390;-74
2022/09/25 11:00:50;;;;;;;4.10;2.13;;;;;;;17.89;69.41;99863.94;6270893;28;20132;-74
2022/09/25 11:03:55;;;;;;;16.95;6.03;;;;;;;17.90;70.92;99865.63;6253210;28;20076;-74
2022/09/25 11:07:03;;;;;;;2.72;2.20;;;;;;;17.95;71.00;99859.91;6272277;28;20053;-74
2022/09/25 11:10:04;;;;;;;5.30;2.08;;;;;;;17.83;68.50;99853.97;6243978;28;20448;-74
2022/09/25 11:13:19;;;;;;;2.97;2.22;;;;;;;17.89;70.39;99859.50;6250503;28;20041;-73
2022/09/25 11:16:20;;;;;;;4.22;2.42;;;;;;;17.89;72.86;99861.28;6232867;28;20520;-74
2022/09/25 11:19:31;;;;;;;3.55;2.38;;;;;;;17.76;74.03;99866.88;6250507;28;20046;-74
2022/09/25 11:22:36;;;;;;;3.35;2.40;;;;;;;17.83;74.94;99862.72;6249198;28;20083;-74
2022/09/25 11:26:24;;;;;;;4.60;2.85;;;;;;;17.85;76.87;99863.41;6282380;28;20513;-74
2022/09/25 11:29:53;;;;;;;6.47;2.53;;;;;;;17.71;78.37;99866.50;6250205;28;20115;-73
2022/09/25 11:32:57;;;;;;;3.92;2.33;;;;;;;17.73;77.80;99862.72;6249091;28;20049;-75
2022/09/25 11:36:16;;;;;;;3.60;2.67;;;;;;;17.73;79.42;99861.91;6248967;28;20045;-74
2022/09/25 11:42:56;;;;;;;4.80;3.05;;;;;;;17.50;83.96;99866.66;6249821;28;20049;-73
2022/09/25 11:46:17;;;;;;;5.80;3.15;;;;;;;17.48;82.72;99869.47;6248774;28;20513;-74
2022/09/25 11:49:25;;;;;;;4.28;2.78;;;;;;;17.48;82.20;99858.94;6249862;28;20046;-74
2022/09/25 11:52:41;;;;;;;8.57;3.40;;;;;;;17.57;85.60;99862.50;6265131;28;20498;-73
2022/09/25 11:56:03;;;;;;;4.18;2.40;;;;;;;17.65;84.18;99859.16;6231895;28;20103;-74
2022/09/25 11:59:16;;;;;;;6.18;2.95;;;;;;;17.54;82.89;99857.50;6248271;28;20496;-73
2022/09/25 12:02:25;;;;;;;4.28;2.70;;;;;;;17.50;85.25;99856.97;6248325;28;20421;-75
2022/09/25 12:05:41;;;;;;;5.00;2.70;;;;;;;17.33;84.57;99847.16;6249355;28;20410;-74
2022/09/25 12:09:06;;;;;;;8.55;3.35;;;;;;;17.32;86.58;99851.59;6248200;28;20456;-73
2022/09/25 12:12:31;;;;;;;7.35;3.95;;;;;;;17.28;87.47;99855.50;6281117;28;20050;-73
2022/09/25 12:15:50;;;;;;;21.83;9.40;;;;;;;17.30;87.62;99836.91;6247927;28;20045;-73
2022/09/25 12:18:59;;;;;;;11.77;5.70;;;;;;;17.25;89.73;99842.56;6231032;28;20045;-74
2022/09/25 12:22:36;;;;;;;6.00;4.05;;;;;;;17.32;90.96;99834.94;6248982;28;20144;-73
2022/09/25 12:26:28;;;;;;;5.00;3.17;;;;;;;17.32;92.06;99830.50;6248094;28;20047;-73
2022/09/25 12:29:38;;;;;;;5.93;3.63;;;;;;;17.31;92.44;99814.81;6214382;28;20058;-73
2022/09/25 12:33:22;;;;;;;5.95;3.58;;;;;;;17.34;87.31;99809.28;6256885;28;20049;-73
2022/09/25 12:36:34;;;;;;;5.45;2.60;;;;;;;17.17;88.07;99812.63;6251793;28;20390;-73
2022/09/25 12:39:43;;;;;;;6.75;2.47;;;;;;;17.11;93.34;99806.97;6247607;28;20098;-74
2022/09/25 12:43:13;;;;;;;6.68;3.08;;;;;;;16.85;89.34;99797.97;6231068;28;20478;-73
2022/09/25 12:46:19;;;;;;;4.60;2.58;;;;;;;16.72;85.59;99795.59;6248541;28;20478;-73
2022/09/25 12:49:55;;;;;;;5.57;2.67;;;;;;;16.61;87.12;99796.56;6247164;28;20049;-74
2022/09/25 12:53:04;;;;;;;4.88;2.80;;;;;;;16.52;88.09;99800.84;6264999;28;20071;-74
2022/09/25 12:56:12;;;;;;;3.00;2.72;;;;;;;16.66;88.66;99797.00;6273091;28;20076;-74
2022/09/25 12:59:30;;;;;;;5.72;3.30;;;;;;;16.66;91.60;99799.63;6273092;28;20110;-74
2022/09/25 13:02:43;;;;;;;3.40;2.22;;;;;;;16.54;90.91;99795.47;6271668;28;20124;-73
2022/09/25 13:05:49;;;;;;;3.15;2.75;;;;;;;16.59;95.77;99790.59;6272825;28;20477;-73
2022/09/25 13:09:19;;;;;;;5.75;3.40;;;;;;;16.45;94.63;99780.47;6271777;28;20076;-73
2022/09/25 13:12:35;;;;;;;8.68;5.35;;;;;;;16.46;97.83;99775.06;6272782;28;20064;-73
2022/09/25 13:15:38;;;;;;;6.35;4.32;;;;;;;16.51;98.31;99782.56;6287925;28;20061;-73
2022/09/25 13:19:08;;;;;;;5.15;4.00;;;;;;;16.62;100.00;99777.16;6254954;28;20049;-73
2022/09/25 13:22:17;;;;;;;5.28;3.95;;;;;;;16.65;100.00;99781.31;6269216;28;20140;-74
2022/09/25 14:40:24;;;;;;;14.30;8.93;;;;;;;16.42;100.00;99722.84;6329045;27;20377;-74
2022/09/25 14:43:41;;;;;;;12.13;6.43;;;;;;;16.58;100.00;99723.09;6327260;28;20037;-74
2022/09/25 14:46:46;;;;;;;6.47;4.13;;;;;;;16.48;100.00;99711.75;6317756;28;20498;-74
2022/09/25 14:49:52;;;;;;;6.15;3.95;;;;;;;16.45;100.00;99718.13;6300258;28;20051;-74
2022/09/25 14:53:01;;;;;;;6.68;3.35;;;;;;;16.38;100.00;99711.75;6334194;28;20048;-74
2022/09/25 14:56:08;;;;;;;4.30;3.28;;;;;;;16.16;100.00;99704.13;6318169;28;20040;-75
2022/09/25 14:59:15;;;;;;;7.18;4.25;;;;;;;16.05;100.00;99705.91;6333752;28;20044;-74
2022/09/25 15:02:32;;;;;;;7.97;5.00;;;;;;;15.94;100.00;99698.16;6316916;28;20510;-74
2022/09/25 15:05:34;;;;;;;4.80;3.42;;;;;;;15.98;100.00;99686.41;6316883;28;20161;-75
2022/09/25 15:08:40;;;;;;;4.80;3.17;;;;;;;15.97;100.00;99676.81;6299844;28;20093;-74
2022/09/25 15:11:42;;;;;;;5.85;3.45;;;;;;;16.03;100.00;99680.72;6316666;28;20139;-74
2022/09/25 15:14:56;;;;;;;5.70;3.88;;;;;;;16.00;100.00;99683.59;6299620;28;20086;-75
2022/09/25 15:18:01;;;;;;;4.93;3.53;;;;;;;15.93;100.00;99674.59;6316382;28;20044;-75
2022/09/25 15:21:02;;;;;;;6.15;4.05;;;;;;;15.91;100.00;99674.75;6316481;28;20198;-73
2022/09/25 15:24:10;;;;;;;6.47;3.88;;;;;;;15.85;100.00;99668.22;6316265;28;20157;-73
2022/09/25 15:27:15;;;;;;;7.45;3.88;;;;;;;15.82;100.00;99668.50;6317457;28;20041;-75
2022/09/25 15:30:17;;;;;;;9.15;4.07;;;;;;;15.78;100.00;99668.91;6316141;28;20060;-75
2022/09/25 15:33:25;;;;;;;4.53;3.13;;;;;;;15.79;100.00;99671.38;6317335;28;20041;-73
2022/09/25 15:36:26;;;;;;;4.43;2.97;;;;;;;15.76;100.00;99684.00;6317142;28;20124;-73
2022/09/25 15:39:28;;;;;;;7.50;3.50;;;;;;;15.77;100.00;99690.91;6307836;28;20048;-74
2022/09/25 15:42:29;;;;;;;7.97;3.67;;;;;;;15.77;100.00;99699.63;6300454;28;20284;-74
2022/09/25 15:46:06;;;;;;;9.80;4.70;;;;;;;15.74;100.00;99696.47;6298990;28;20044;-73
2022/09/25 15:49:08;;;;;;;7.18;4.75;;;;;;;15.69;100.00;99689.78;6300300;28;20044;-73
2022/09/25 15:52:23;;;;;;;6.03;3.78;;;;;;;15.67;100.00;99686.44;6299078;28;20036;-74
2022/09/25 15:55:24;;;;;;;6.70;4.32;;;;;;;15.62;100.00;99699.16;6299998;28;20040;-73
2022/09/25 15:58:25;;;;;;;7.30;4.40;;;;;;;15.64;100.00;99704.28;6315633;28;20044;-73
2022/09/25 16:04:51;;;;;;;7.30;4.85;;;;;;;15.52;100.00;99695.66;6299798;28;20400;-73
2022/09/25 16:08:23;;;;;;;11.13;4.85;;;;;;;15.48;100.00;99689.00;6298600;28;20060;-74
2022/09/25 16:11:25;;;;;;;6.78;3.67;;;;;;;15.38;100.00;99682.91;6298481;28;20531;-73
2022/09/25 16:14:30;;;;;;;6.32;4.05;;;;;;;15.36;100.00;99680.41;6332236;28;20036;-73
2022/09/25 16:17:36;;;;;;;8.13;3.58;;;;;;;15.29;100.00;99682.72;6299388;28;20052;-73
2022/09/25 16:20:40;;;;;;;7.85;4.53;;;;;;;15.25;100.00;99675.25;6298337;28;20384;-73
2022/09/25 16:23:41;;;;;;;8.88;5.32;;;;;;;15.20;100.00;99665.13;6298245;28;20052;-74